sensor_id;sensor_type;location;lat;lon;timestamp;pressure;altitude;pressure_sealevel;temperature;humidity
71666;BME280;59503;53.486;10.196;2023-03-31T00:01:27;100307.50;;;9.82;100.00
71666;BME280;59503;53.486;10.196;2023-03-31T00:03:53;100303.97;;;9.81;100.00
71666;BME280;59503;53.486;10.196;2023-03-31T00:06:28;100303.16;;;9.77;100.00
71666;BME280;59503;53.486;10.196;2023-03-31T00:08:53;100305.97;;;9.84;100.00
71666;BME280;59503;53.486;10.196;2023-03-31T00:11:20;100302.13;;;9.85;100.00
71666;BME280;59503;53.486;10.196;2023-03-31T00:13:46;100305.19;;;9.84;100.00
71666;BME280;59503;53.486;10.196;2023-03-31T00:16:12;100302.47;;;9.84;100.00
71666;BME280;59503;53.486;10.196;2023-03-31T00:18:37;100288.91;;;9.84;100.00
71666;BME280;59503;53.486;10.196;2023-03-31T00:21:11;100297.47;;;9.86;100.00
71666;BME280;59503;53.486;10.196;2023-03-31T00:23:52;100294.28;;;9.80;100.00
71666;BME280;59503;53.486;10.196;2023-03-31T00:26:17;100296.72;;;9.89;100.00
71666;BME280;59503;53.486;10.196;2023-03-31T00:28:43;100283.47;;;9.84;100.00
71666;BME280;59503;53.486;10.196;2023-03-31T00:31:08;100292.75;;;9.83;100.00
71666;BME280;59503;53.486;10.196;2023-03-31T00:33:34;100280.28;;;9.78;100.00
71666;BME280;59503;53.486;10.196;2023-03-31T00:36:00;100271.31;;;9.74;100.00
71666;BME280;59503;53.486;10.196;2023-03-31T00:38:27;100287.69;;;9.81;100.00
71666;BME280;59503;53.486;10.196;2023-03-31T00:40:55;100279.69;;;9.92;100.00
71666;BME280;59503;53.486;10.196;2023-03-31T00:43:32;100278.63;;;10.00;100.00
71666;BME280;59503;53.486;10.196;2023-03-31T00:46:12;100273.22;;;10.00;100.00
71666;BME280;59503;53.486;10.196;2023-03-31T00:48:49;100271.97;;;9.94;100.00
71666;BME280;59503;53.486;10.196;2023-03-31T00:51:16;100276.66;;;9.97;100.00
71666;BME280;59503;53.486;10.196;2023-03-31T00:53:45;100269.69;;;9.96;100.00
71666;BME280;59503;53.486;10.196;2023-03-31T00:56:15;100269.69;;;9.96;100.00
71666;BME280;59503;53.486;10.196;2023-03-31T00:58:42;100260.97;;;10.13;100.00
71666;BME280;59503;53.486;10.196;2023-03-31T01:01:12;100257.00;;;10.07;100.00
71666;BME280;59503;53.486;10.196;2023-03-31T01:03:42;100254.75;;;10.09;100.00
71666;BME280;59503;53.486;10.196;2023-03-31T01:06:12;100261.31;;;10.08;100.00
71666;BME280;59503;53.486;10.196;2023-03-31T01:08:39;100251.44;;;9.96;100.00
71666;BME280;59503;53.486;10.196;2023-03-31T01:11:09;100254.66;;;10.05;100.00
71666;BME280;59503;53.486;10.196;2023-03-31T01:13:37;100251.16;;;10.05;100.00
71666;BME280;59503;53.486;10.196;2023-03-31T01:16:04;100246.06;;;10.00;100.00
71666;BME280;59503;53.486;10.196;2023-03-31T01:18:30;100235.19;;;10.00;100.00
71666;BME280;59503;53.486;10.196;2023-03-31T01:24:14;100236.69;;;9.94;100.00
71666;BME280;59503;53.486;10.196;2023-03-31T01:33:40;100219.09;;;9.55;100.00
71666;BME280;59503;53.486;10.196;2023-03-31T01:36:34;100216.22;;;9.44;100.00
71666;BME280;59503;53.486;10.196;2023-03-31T01:42:33;100213.84;;;9.39;100.00
71666;BME280;59503;53.486;10.196;2023-03-31T01:47:34;100195.75;;;9.21;100.00
71666;BME280;59503;53.486;10.196;2023-03-31T01:50:17;100194.94;;;9.17;100.00
71666;BME280;59503;53.486;10.196;2023-03-31T01:52:55;100196.28;;;9.04;100.00
71666;BME280;59503;53.486;10.196;2023-03-31T01:55:34;100200.00;;;8.96;100.00
71666;BME280;59503;53.486;10.196;2023-03-31T01:58:25;100205.34;;;8.89;100.00
71666;BME280;59503;53.486;10.196;2023-03-31T02:01:01;100200.69;;;8.89;100.00
71666;BME280;59503;53.486;10.196;2023-03-31T02:03:33;100199.63;;;8.94;100.00
71666;BME280;59503;53.486;10.196;2023-03-31T02:06:12;100192.50;;;8.86;100.00
71666;BME280;59503;53.486;10.196;2023-03-31T02:08:43;100181.56;;;8.78;100.00
71666;BME280;59503;53.486;10.196;2023-03-31T02:11:11;100183.38;;;8.71;100.00
71666;BME280;59503;53.486;10.196;2023-03-31T02:13:39;100179.88;;;8.70;100.00
71666;BME280;59503;53.486;10.196;2023-03-31T02:16:12;100182.47;;;8.63;100.00
71666;BME280;59503;53.486;10.196;2023-03-31T02:18:45;100170.72;;;8.56;100.00
71666;BME280;59503;53.486;10.196;2023-03-31T02:21:13;100154.28;;;8.45;100.00
71666;BME280;59503;53.486;10.196;2023-03-31T02:23:41;100163.03;;;8.35;100.00
71666;BME280;59503;53.486;10.196;2023-03-31T02:26:14;100157.34;;;8.21;100.00
71666;BME280;59503;53.486;10.196;2023-03-31T02:28:41;100159.84;;;8.11;100.00
71666;BME280;59503;53.486;10.196;2023-03-31T02:31:36;100152.31;;;8.01;100.00
71666;BME280;59503;53.486;10.196;2023-03-31T02:34:05;100150.19;;;7.91;100.00
71666;BME280;59503;53.486;10.196;2023-03-31T02:36:32;100151.03;;;7.95;100.00
71666;BME280;59503;53.486;10.196;2023-03-31T02:39:06;100160.38;;;7.97;100.00
71666;BME280;59503;53.486;10.196;2023-03-31T02:41:33;100145.56;;;7.91;100.00
71666;BME280;59503;53.486;10.196;2023-03-31T02:43:59;100156.22;;;8.03;100.00
71666;BME280;59503;53.486;10.196;2023-03-31T02:46:24;100146.41;;;7.95;100.00
71666;BME280;59503;53.486;10.196;2023-03-31T02:48:54;100137.75;;;7.86;100.00
71666;BME280;59503;53.486;10.196;2023-03-31T02:52:02;100139.88;;;7.77;100.00
71666;BME280;59503;53.486;10.196;2023-03-31T03:05:40;100130.19;;;7.38;100.00
71666;BME280;59503;53.486;10.196;2023-03-31T03:13:49;100124.84;;;7.22;100.00
71666;BME280;59503;53.486;10.196;2023-03-31T03:16:25;100114.31;;;7.17;100.00
71666;BME280;59503;53.486;10.196;2023-03-31T03:19:03;100109.53;;;7.11;100.00
71666;BME280;59503;53.486;10.196;2023-03-31T03:21:30;100114.38;;;7.02;100.00
71666;BME280;59503;53.486;10.196;2023-03-31T03:23:56;100096.44;;;6.94;100.00
71666;BME280;59503;53.486;10.196;2023-03-31T03:26:22;100100.34;;;6.96;100.00
71666;BME280;59503;53.486;10.196;2023-03-31T03:28:49;100092.78;;;6.86;100.00
71666;BME280;59503;53.486;10.196;2023-03-31T03:31:15;100098.78;;;6.95;100.00
71666;BME280;59503;53.486;10.196;2023-03-31T03:33:41;100096.28;;;7.06;100.00
71666;BME280;59503;53.486;10.196;2023-03-31T03:36:07;100080.69;;;7.15;100.00
71666;BME280;59503;53.486;10.196;2023-03-31T03:38:32;100086.22;;;7.22;100.00
71666;BME280;59503;53.486;10.196;2023-03-31T03:40:58;100096.56;;;7.35;100.00
71666;BME280;59503;53.486;10.196;2023-03-31T03:43:23;100088.22;;;7.44;100.00
71666;BME280;59503;53.486;10.196;2023-03-31T03:45:49;100085.34;;;7.56;100.00
71666;BME280;59503;53.486;10.196;2023-03-31T03:48:16;100082.34;;;7.61;100.00
71666;BME280;59503;53.486;10.196;2023-03-31T03:50:41;100081.00;;;7.71;100.00
71666;BME280;59503;53.486;10.196;2023-03-31T03:53:07;100081.50;;;7.76;100.00
71666;BME280;59503;53.486;10.196;2023-03-31T03:55:33;100068.09;;;7.83;100.00
71666;BME280;59503;53.486;10.196;2023-03-31T03:57:58;100063.53;;;7.87;100.00
71666;BME280;59503;53.486;10.196;2023-03-31T04:00:24;100070.56;;;7.92;100.00
71666;BME280;59503;53.486;10.196;2023-03-31T04:02:50;100058.25;;;7.94;100.00
71666;BME280;59503;53.486;10.196;2023-03-31T04:05:15;100057.53;;;7.97;100.00
71666;BME280;59503;53.486;10.196;2023-03-31T04:07:41;100065.34;;;8.02;100.00
71666;BME280;59503;53.486;10.196;2023-03-31T04:10:07;100057.66;;;8.04;100.00
71666;BME280;59503;53.486;10.196;2023-03-31T04:12:34;100047.59;;;8.05;100.00
71666;BME280;59503;53.486;10.196;2023-03-31T04:14:59;100046.16;;;8.11;100.00
71666;BME280;59503;53.486;10.196;2023-03-31T04:17:25;100044.66;;;8.13;100.00
71666;BME280;59503;53.486;10.196;2023-03-31T04:20:00;100030.78;;;8.15;100.00
71666;BME280;59503;53.486;10.196;2023-03-31T04:22:29;100023.09;;;8.20;100.00
71666;BME280;59503;53.486;10.196;2023-03-31T04:25:03;100018.13;;;8.22;100.00
71666;BME280;59503;53.486;10.196;2023-03-31T04:27:29;100014.72;;;8.25;100.00
71666;BME280;59503;53.486;10.196;2023-03-31T04:29:55;100021.34;;;8.28;100.00
71666;BME280;59503;53.486;10.196;2023-03-31T04:32:21;100022.09;;;8.28;100.00
71666;BME280;59503;53.486;10.196;2023-03-31T04:34:48;100013.28;;;8.31;100.00
71666;BME280;59503;53.486;10.196;2023-03-31T04:37:15;100017.94;;;8.34;100.00
71666;BME280;59503;53.486;10.196;2023-03-31T04:39:41;100016.44;;;8.37;100.00
71666;BME280;59503;53.486;10.196;2023-03-31T04:42:06;100006.81;;;8.39;100.00
71666;BME280;59503;53.486;10.196;2023-03-31T04:44:32;99989.72;;;8.35;100.00
71666;BME280;59503;53.486;10.196;2023-03-31T04:46:58;99998.78;;;8.46;100.00
71666;BME280;59503;53.486;10.196;2023-03-31T04:49:26;99993.44;;;8.50;100.00
71666;BME280;59503;53.486;10.196;2023-03-31T04:51:52;99982.94;;;8.48;100.00
71666;BME280;59503;53.486;10.196;2023-03-31T04:54:17;99984.16;;;8.51;100.00
71666;BME280;59503;53.486;10.196;2023-03-31T04:56:43;99977.03;;;8.69;100.00
71666;BME280;59503;53.486;10.196;2023-03-31T04:59:08;99964.28;;;8.69;100.00
71666;BME280;59503;53.486;10.196;2023-03-31T05:01:34;99969.00;;;8.76;100.00
71666;BME280;59503;53.486;10.196;2023-03-31T05:04:01;99959.00;;;8.80;100.00
71666;BME280;59503;53.486;10.196;2023-03-31T05:06:27;99951.31;;;8.86;100.00
71666;BME280;59503;53.486;10.196;2023-03-31T05:08:52;99950.59;;;8.89;100.00
71666;BME280;59503;53.486;10.196;2023-03-31T05:11:17;99944.84;;;8.97;100.00
71666;BME280;59503;53.486;10.196;2023-03-31T05:13:43;99946.47;;;9.02;100.00
71666;BME280;59503;53.486;10.196;2023-03-31T05:16:10;99953.81;;;9.01;100.00
71666;BME280;59503;53.486;10.196;2023-03-31T05:18:39;99954.69;;;9.09;100.00
71666;BME280;59503;53.486;10.196;2023-03-31T05:21:09;99956.63;;;9.08;100.00
71666;BME280;59503;53.486;10.196;2023-03-31T05:23:35;99948.84;;;9.07;100.00
71666;BME280;59503;53.486;10.196;2023-03-31T05:26:00;99943.00;;;9.05;100.00
71666;BME280;59503;53.486;10.196;2023-03-31T05:28:26;99942.28;;;9.08;100.00
71666;BME280;59503;53.486;10.196;2023-03-31T05:30:51;99933.03;;;9.12;100.00
71666;BME280;59503;53.486;10.196;2023-03-31T05:33:16;99940.06;;;9.17;100.00
71666;BME280;59503;53.486;10.196;2023-03-31T05:35:43;99924.16;;;9.15;100.00
71666;BME280;59503;53.486;10.196;2023-03-31T05:38:08;99918.81;;;9.22;100.00
71666;BME280;59503;53.486;10.196;2023-03-31T05:40:34;99915.34;;;9.25;100.00
71666;BME280;59503;53.486;10.196;2023-03-31T05:43:00;99918.47;;;9.27;100.00
71666;BME280;59503;53.486;10.196;2023-03-31T05:45:25;99922.31;;;9.26;100.00
71666;BME280;59503;53.486;10.196;2023-03-31T05:47:50;99916.13;;;9.26;100.00
71666;BME280;59503;53.486;10.196;2023-03-31T05:50:16;99914.56;;;9.25;100.00
71666;BME280;59503;53.486;10.196;2023-03-31T05:52:42;99920.03;;;9.28;100.00
71666;BME280;59503;53.486;10.196;2023-03-31T05:55:08;99911.94;;;9.32;100.00
71666;BME280;59503;53.486;10.196;2023-03-31T05:57:33;99906.88;;;9.30;100.00
71666;BME280;59503;53.486;10.196;2023-03-31T05:59:59;99907.63;;;9.31;100.00
71666;BME280;59503;53.486;10.196;2023-03-31T06:02:24;99893.69;;;9.29;100.00
71666;BME280;59503;53.486;10.196;2023-03-31T06:04:50;99898.38;;;9.32;100.00
71666;BME280;59503;53.486;10.196;2023-03-31T06:07:16;99898.38;;;9.32;100.00
71666;BME280;59503;53.486;10.196;2023-03-31T06:09:42;99901.88;;;9.36;100.00
71666;BME280;59503;53.486;10.196;2023-03-31T06:12:07;99890.69;;;9.41;100.00
71666;BME280;59503;53.486;10.196;2023-03-31T06:14:32;99891.53;;;9.48;100.00
71666;BME280;59503;53.486;10.196;2023-03-31T06:16:58;99888.50;;;9.57;100.00
71666;BME280;59503;53.486;10.196;2023-03-31T06:19:23;99903.31;;;9.66;100.00
71666;BME280;59503;53.486;10.196;2023-03-31T06:21:49;99892.88;;;9.68;100.00
71666;BME280;59503;53.486;10.196;2023-03-31T06:24:15;99897.56;;;9.75;100.00
71666;BME280;59503;53.486;10.196;2023-03-31T06:26:40;99895.66;;;9.79;100.00
71666;BME280;59503;53.486;10.196;2023-03-31T06:29:06;99893.34;;;9.84;100.00
71666;BME280;59503;53.486;10.196;2023-03-31T06:31:31;99890.28;;;9.86;100.00
71666;BME280;59503;53.486;10.196;2023-03-31T06:33:57;99899.63;;;9.92;100.00
71666;BME280;59503;53.486;10.196;2023-03-31T06:36:22;99894.19;;;9.92;100.00
71666;BME280;59503;53.486;10.196;2023-03-31T06:38:49;99898.88;;;9.95;100.00
71666;BME280;59503;53.486;10.196;2023-03-31T06:41:16;99895.81;;;10.00;100.00
71666;BME280;59503;53.486;10.196;2023-03-31T06:43:41;99883.81;;;10.01;100.00
71666;BME280;59503;53.486;10.196;2023-03-31T06:46:07;99887.28;;;10.01;100.00
71666;BME280;59503;53.486;10.196;2023-03-31T06:48:33;99890.44;;;10.07;100.00
71666;BME280;59503;53.486;10.196;2023-03-31T06:50:59;99884.25;;;10.10;100.00
71666;BME280;59503;53.486;10.196;2023-03-31T06:53:26;99883.91;;;10.15;100.00
71666;BME280;59503;53.486;10.196;2023-03-31T06:55:51;99870.72;;;10.14;100.00
71666;BME280;59503;53.486;10.196;2023-03-31T06:58:17;99876.22;;;10.24;100.00
71666;BME280;59503;53.486;10.196;2023-03-31T07:00:42;99881.28;;;10.29;100.00
71666;BME280;59503;53.486;10.196;2023-03-31T07:03:10;99872.75;;;10.34;100.00
71666;BME280;59503;53.486;10.196;2023-03-31T07:05:36;99875.50;;;10.38;100.00
71666;BME280;59503;53.486;10.196;2023-03-31T07:08:02;99872.41;;;10.39;100.00
71666;BME280;59503;53.486;10.196;2023-03-31T07:10:29;99871.22;;;10.40;100.00
71666;BME280;59503;53.486;10.196;2023-03-31T07:12:55;99861.56;;;10.46;100.00
71666;BME280;59503;53.486;10.196;2023-03-31T07:15:21;99868.97;;;10.56;100.00
71666;BME280;59503;53.486;10.196;2023-03-31T07:17:46;99863.94;;;10.62;100.00
71666;BME280;59503;53.486;10.196;2023-03-31T07:20:16;99863.56;;;10.70;100.00
71666;BME280;59503;53.486;10.196;2023-03-31T07:22:43;99847.28;;;10.77;100.00
71666;BME280;59503;53.486;10.196;2023-03-31T07:25:11;99855.13;;;10.93;100.00
71666;BME280;59503;53.486;10.196;2023-03-31T07:27:37;99851.22;;;10.90;100.00
71666;BME280;59503;53.486;10.196;2023-03-31T07:30:04;99846.16;;;10.92;100.00
71666;BME280;59503;53.486;10.196;2023-03-31T07:32:30;99846.97;;;10.96;100.00
71666;BME280;59503;53.486;10.196;2023-03-31T07:34:57;99844.25;;;10.96;100.00
71666;BME280;59503;53.486;10.196;2023-03-31T07:37:22;99843.06;;;11.01;100.00
71666;BME280;59503;53.486;10.196;2023-03-31T07:39:48;99836.06;;;10.89;100.00
71666;BME280;59503;53.486;10.196;2023-03-31T07:42:13;99842.66;;;10.95;100.00
71666;BME280;59503;53.486;10.196;2023-03-31T07:44:39;99843.47;;;10.99;100.00
71666;BME280;59503;53.486;10.196;2023-03-31T07:47:04;99829.47;;;10.90;100.00
71666;BME280;59503;53.486;10.196;2023-03-31T07:49:34;99827.13;;;10.92;100.00
71666;BME280;59503;53.486;10.196;2023-03-31T07:52:00;99829.47;;;10.83;100.00
71666;BME280;59503;53.486;10.196;2023-03-31T07:54:26;99822.06;;;10.87;100.00
71666;BME280;59503;53.486;10.196;2023-03-31T07:56:52;99822.47;;;10.86;100.00
71666;BME280;59503;53.486;10.196;2023-03-31T07:59:18;99824.03;;;10.87;100.00
71666;BME280;59503;53.486;10.196;2023-03-31T08:01:44;99827.13;;;10.82;100.00
71666;BME280;59503;53.486;10.196;2023-03-31T08:04:11;99818.97;;;10.75;100.00
71666;BME280;59503;53.486;10.196;2023-03-31T08:06:37;99817.38;;;10.70;100.00
71666;BME280;59503;53.486;10.196;2023-03-31T08:09:05;99811.56;;;10.65;100.00
71666;BME280;59503;53.486;10.196;2023-03-31T08:11:32;99803.78;;;10.63;100.00
71666;BME280;59503;53.486;10.196;2023-03-31T08:13:58;99798.34;;;10.63;100.00
71666;BME280;59503;53.486;10.196;2023-03-31T08:16:23;99800.31;;;10.73;100.00
71666;BME280;59503;53.486;10.196;2023-03-31T08:18:49;99799.91;;;10.68;100.00
71666;BME280;59503;53.486;10.196;2023-03-31T08:21:15;99795.25;;;10.65;100.00
71666;BME280;59503;53.486;10.196;2023-03-31T08:23:40;99790.97;;;10.64;100.00
71666;BME280;59503;53.486;10.196;2023-03-31T08:26:13;99796.00;;;10.62;100.00
71666;BME280;59503;53.486;10.196;2023-03-31T08:28:38;99791.31;;;10.52;100.00
71666;BME280;59503;53.486;10.196;2023-03-31T08:31:05;99790.56;;;10.51;100.00
71666;BME280;59503;53.486;10.196;2023-03-31T08:33:32;99800.59;;;10.44;100.00
71666;BME280;59503;53.486;10.196;2023-03-31T08:36:01;99793.63;;;10.39;100.00
71666;BME280;59503;53.486;10.196;2023-03-31T08:38:28;99790.13;;;10.42;100.00
71666;BME280;59503;53.486;10.196;2023-03-31T08:41:00;99788.19;;;10.39;100.00
71666;BME280;59503;53.486;10.196;2023-03-31T08:43:33;99784.28;;;10.37;100.00
71666;BME280;59503;53.486;10.196;2023-03-31T08:46:02;99781.19;;;10.35;100.00
71666;BME280;59503;53.486;10.196;2023-03-31T08:48:38;99780.00;;;10.29;100.00
71666;BME280;59503;53.486;10.196;2023-03-31T08:51:26;99778.06;;;10.29;100.00
71666;BME280;59503;53.486;10.196;2023-03-31T08:53:59;99776.50;;;10.25;100.00
71666;BME280;59503;53.486;10.196;2023-03-31T08:56:27;99771.06;;;10.21;100.00
71666;BME280;59503;53.486;10.196;2023-03-31T08:58:54;99767.16;;;10.22;100.00
71666;BME280;59503;53.486;10.196;2023-03-31T09:01:36;99762.16;;;10.28;100.00
71666;BME280;59503;53.486;10.196;2023-03-31T09:09:50;99747.00;;;10.30;100.00
71666;BME280;59503;53.486;10.196;2023-03-31T09:12:36;99740.81;;;10.26;100.00
71666;BME280;59503;53.486;10.196;2023-03-31T09:15:36;99747.41;;;10.32;100.00
71666;BME280;59503;53.486;10.196;2023-03-31T09:18:07;99736.91;;;10.27;100.00
71666;BME280;59503;53.486;10.196;2023-03-31T09:20:39;99732.66;;;10.30;100.00
71666;BME280;59503;53.486;10.196;2023-03-31T09:25:55;99728.00;;;10.34;100.00
71666;BME280;59503;53.486;10.196;2023-03-31T09:28:31;99729.56;;;10.35;100.00
71666;BME280;59503;53.486;10.196;2023-03-31T09:30:59;99729.94;;;10.30;100.00
71666;BME280;59503;53.486;10.196;2023-03-31T09:33:29;99720.66;;;10.34;100.00
71666;BME280;59503;53.486;10.196;2023-03-31T09:36:01;99716.75;;;10.39;100.00
71666;BME280;59503;53.486;10.196;2023-03-31T09:38:32;99713.28;;;10.42;100.00
71666;BME280;59503;53.486;10.196;2023-03-31T09:41:02;99708.22;;;10.44;100.00
71666;BME280;59503;53.486;10.196;2023-03-31T09:43:34;99692.72;;;10.44;100.00
71666;BME280;59503;53.486;10.196;2023-03-31T09:46:00;99703.59;;;10.48;100.00
71666;BME280;59503;53.486;10.196;2023-03-31T09:48:30;99698.94;;;10.59;100.00
71666;BME280;59503;53.486;10.196;2023-03-31T09:51:14;99703.59;;;10.65;100.00
71666;BME280;59503;53.486;10.196;2023-03-31T09:53:48;99700.53;;;10.63;100.00
71666;BME280;59503;53.486;10.196;2023-03-31T09:56:32;99688.88;;;10.73;100.00
71666;BME280;59503;53.486;10.196;2023-03-31T09:59:02;99688.84;;;10.87;100.00
71666;BME280;59503;53.486;10.196;2023-03-31T10:01:28;99686.53;;;10.89;100.00
71666;BME280;59503;53.486;10.196;2023-03-31T10:03:54;99686.13;;;10.84;100.00
71666;BME280;59503;53.486;10.196;2023-03-31T10:06:22;99686.53;;;10.79;100.00
71666;BME280;59503;53.486;10.196;2023-03-31T10:08:54;99683.44;;;10.77;100.00
71666;BME280;59503;53.486;10.196;2023-03-31T10:11:22;99669.06;;;10.73;100.00
71666;BME280;59503;53.486;10.196;2023-03-31T10:16:34;99672.53;;;10.80;100.00
71666;BME280;59503;53.486;10.196;2023-03-31T10:19:27;99674.91;;;10.82;100.00
71666;BME280;59503;53.486;10.196;2023-03-31T10:24:22;99675.25;;;10.98;100.00
71666;BME280;59503;53.486;10.196;2023-03-31T10:26:51;99662.47;;;10.98;100.00
71666;BME280;59503;53.486;10.196;2023-03-31T10:29:30;99652.31;;;11.09;100.00
71666;BME280;59503;53.486;10.196;2023-03-31T10:32:19;99656.56;;;11.28;100.00
71666;BME280;59503;53.486;10.196;2023-03-31T10:34:47;99653.03;;;11.42;100.00
71666;BME280;59503;53.486;10.196;2023-03-31T10:37:16;99652.25;;;11.41;100.00
71666;BME280;59503;53.486;10.196;2023-03-31T10:39:43;99647.63;;;11.31;100.00
71666;BME280;59503;53.486;10.196;2023-03-31T10:42:18;99644.56;;;11.18;100.00
71666;BME280;59503;53.486;10.196;2023-03-31T10:44:45;99650.00;;;11.15;100.00
71666;BME280;59503;53.486;10.196;2023-03-31T10:47:19;99647.63;;;11.27;100.00
71666;BME280;59503;53.486;10.196;2023-03-31T10:49:48;99650.72;;;11.29;100.00
71666;BME280;59503;53.486;10.196;2023-03-31T10:52:23;99610.75;;;11.12;100.00
71666;BME280;59503;53.486;10.196;2023-03-31T10:54:58;99640.63;;;11.26;100.00
71666;BME280;59503;53.486;10.196;2023-03-31T11:00:11;99641.38;;;11.38;100.00
71666;BME280;59503;53.486;10.196;2023-03-31T11:05:51;99631.69;;;11.22;100.00
71666;BME280;59503;53.486;10.196;2023-03-31T11:08:55;99628.25;;;11.11;100.00
71666;BME280;59503;53.486;10.196;2023-03-31T11:20:02;99613.50;;;10.95;100.00
71666;BME280;59503;53.486;10.196;2023-03-31T11:23:00;99620.50;;;10.92;100.00
71666;BME280;59503;53.486;10.196;2023-03-31T11:34:18;99607.69;;;10.82;100.00
71666;BME280;59503;53.486;10.196;2023-03-31T11:36:50;99609.66;;;10.78;100.00
71666;BME280;59503;53.486;10.196;2023-03-31T11:39:34;99596.47;;;10.73;100.00
71666;BME280;59503;53.486;10.196;2023-03-31T11:42:08;99592.56;;;10.67;100.00
71666;BME280;59503;53.486;10.196;2023-03-31T11:44:41;99600.72;;;10.60;100.00
71666;BME280;59503;53.486;10.196;2023-03-31T11:47:14;99588.69;;;10.54;100.00
71666;BME280;59503;53.486;10.196;2023-03-31T11:52:29;99591.81;;;10.53;100.00
71666;BME280;59503;53.486;10.196;2023-03-31T11:57:37;99580.56;;;10.51;100.00
71666;BME280;59503;53.486;10.196;2023-03-31T12:00:05;99582.13;;;10.41;100.00
71666;BME280;59503;53.486;10.196;2023-03-31T12:05:41;99578.63;;;10.51;100.00
71666;BME280;59503;53.486;10.196;2023-03-31T12:08:15;99577.44;;;10.45;100.00
71666;BME280;59503;53.486;10.196;2023-03-31T12:10:50;99573.19;;;10.44;100.00
71666;BME280;59503;53.486;10.196;2023-03-31T12:16:39;99563.88;;;10.38;100.00
71666;BME280;59503;53.486;10.196;2023-03-31T12:21:54;99565.41;;;10.25;100.00
71666;BME280;59503;53.486;10.196;2023-03-31T12:24:20;99561.94;;;10.21;100.00
71666;BME280;59503;53.486;10.196;2023-03-31T12:26:51;99554.19;;;10.20;100.00
71666;BME280;59503;53.486;10.196;2023-03-31T12:31:54;99547.56;;;10.10;100.00
71666;BME280;59503;53.486;10.196;2023-03-31T12:34:22;99544.44;;;10.04;100.00
71666;BME280;59503;53.486;10.196;2023-03-31T12:45:30;99547.97;;;10.26;100.00
71666;BME280;59503;53.486;10.196;2023-03-31T12:48:16;99532.03;;;10.42;100.00
71666;BME280;59503;53.486;10.196;2023-03-31T12:50:55;99528.13;;;10.71;100.00
71666;BME280;59503;53.486;10.196;2023-03-31T12:56:01;99521.31;;;11.28;100.00
71666;BME280;59503;53.486;10.196;2023-03-31T13:06:03;99511.34;;;11.80;100.00
71666;BME280;59503;53.486;10.196;2023-03-31T13:11:14;99513.22;;;11.87;100.00
71666;BME280;59503;53.486;10.196;2023-03-31T13:13:45;99501.09;;;11.95;100.00
71666;BME280;59503;53.486;10.196;2023-03-31T13:16:19;99493.47;;;11.79;100.00
71666;BME280;59503;53.486;10.196;2023-03-31T13:18:50;99496.13;;;11.83;100.00
71666;BME280;59503;53.486;10.196;2023-03-31T13:21:16;99497.78;;;11.73;100.00
71666;BME280;59503;53.486;10.196;2023-03-31T13:23:44;99488.78;;;11.80;100.00
71666;BME280;59503;53.486;10.196;2023-03-31T13:34:30;99480.03;;;12.06;100.00
71666;BME280;59503;53.486;10.196;2023-03-31T13:37:29;99479.38;;;11.88;100.00
71666;BME280;59503;53.486;10.196;2023-03-31T13:42:46;99479.47;;;11.77;100.00
71666;BME280;59503;53.486;10.196;2023-03-31T13:46:03;99478.66;;;11.80;100.00
71666;BME280;59503;53.486;10.196;2023-03-31T14:07:14;99467.78;;;12.28;100.00
71666;BME280;59503;53.486;10.196;2023-03-31T14:09:43;99456.00;;;12.38;100.00
71666;BME280;59503;53.486;10.196;2023-03-31T14:12:33;99461.06;;;12.73;100.00
71666;BME280;59503;53.486;10.196;2023-03-31T14:14:59;99456.53;;;12.93;100.00
71666;BME280;59503;53.486;10.196;2023-03-31T14:17:30;99466.66;;;13.26;100.00
71666;BME280;59503;53.486;10.196;2023-03-31T14:28:27;99453.78;;;12.97;100.00
71666;BME280;59503;53.486;10.196;2023-03-31T14:31:08;99452.16;;;12.99;100.00
71666;BME280;59503;53.486;10.196;2023-03-31T14:33:51;99451.47;;;12.95;100.00
71666;BME280;59503;53.486;10.196;2023-03-31T14:39:20;99451.19;;;12.83;100.00
71666;BME280;59503;53.486;10.196;2023-03-31T14:41:51;99451.19;;;12.83;100.00
71666;BME280;59503;53.486;10.196;2023-03-31T14:44:18;99450.88;;;12.77;100.00
71666;BME280;59503;53.486;10.196;2023-03-31T14:46:45;99443.97;;;12.69;100.00
71666;BME280;59503;53.486;10.196;2023-03-31T14:49:21;99443.66;;;12.60;100.00
71666;BME280;59503;53.486;10.196;2023-03-31T14:51:51;99444.16;;;12.52;100.00
71666;BME280;59503;53.486;10.196;2023-03-31T14:54:19;99442.94;;;12.56;100.00
71666;BME280;59503;53.486;10.196;2023-03-31T14:56:55;99449.81;;;12.68;100.00
71666;BME280;59503;53.486;10.196;2023-03-31T14:59:25;99447.13;;;12.64;100.00
71666;BME280;59503;53.486;10.196;2023-03-31T15:01:53;99443.63;;;12.64;100.00
71666;BME280;59503;53.486;10.196;2023-03-31T15:04:23;99447.22;;;12.57;100.00
71666;BME280;59503;53.486;10.196;2023-03-31T15:06:50;99451.41;;;12.65;100.00
71666;BME280;59503;53.486;10.196;2023-03-31T15:09:28;99435.63;;;12.49;100.00
71666;BME280;59503;53.486;10.196;2023-03-31T15:12:02;99436.56;;;12.70;100.00
71666;BME280;59503;53.486;10.196;2023-03-31T15:14:30;99442.78;;;12.70;100.00
71666;BME280;59503;53.486;10.196;2023-03-31T15:16:58;99432.59;;;12.74;100.00
71666;BME280;59503;53.486;10.196;2023-03-31T15:19:33;99440.94;;;12.60;100.00
71666;BME280;59503;53.486;10.196;2023-03-31T15:22:20;99442.16;;;12.56;100.00
71666;BME280;59503;53.486;10.196;2023-03-31T15:24:46;99447.69;;;12.48;100.00